createdAt,value
2023-02-23T00:01:37.694Z,7.45
2023-02-23T00:04:04.377Z,7.44
2023-02-23T00:06:33.108Z,7.42
2023-02-23T00:09:01.185Z,7.40
2023-02-23T00:11:28.373Z,7.40
2023-02-23T00:13:56.745Z,7.37
2023-02-23T00:16:24.936Z,7.36
2023-02-23T00:18:56.960Z,7.35
2023-02-23T00:21:26.096Z,7.36
2023-02-23T00:23:55.468Z,7.37
2023-02-23T00:26:24.363Z,7.35
2023-02-23T00:28:52.938Z,7.34
2023-02-23T00:31:25.733Z,7.32
2023-02-23T00:33:57.236Z,7.28
2023-02-23T00:36:26.918Z,7.25
2023-02-23T00:38:55.286Z,7.26
2023-02-23T00:41:30.861Z,7.24
2023-02-23T00:43:59.743Z,7.21
2023-02-23T00:46:28.820Z,7.19
2023-02-23T00:48:56.900Z,7.19
2023-02-23T00:51:30.995Z,7.19
2023-02-23T00:53:59.660Z,7.17
2023-02-23T00:56:27.167Z,7.18
2023-02-23T00:58:54.426Z,7.16
2023-02-23T01:01:22.085Z,7.15
2023-02-23T01:03:49.117Z,7.15
2023-02-23T01:06:17.339Z,7.13
2023-02-23T01:08:46.212Z,7.12
2023-02-23T01:11:15.074Z,7.12
2023-02-23T01:13:43.998Z,7.11
2023-02-23T01:16:13.645Z,7.10
2023-02-23T01:18:41.394Z,7.09
2023-02-23T01:21:21.598Z,7.07
2023-02-23T01:23:48.028Z,7.06
2023-02-23T01:26:34.031Z,7.03
2023-02-23T01:29:15.610Z,7.03
2023-02-23T01:31:45.758Z,7.01
2023-02-23T01:34:14.245Z,7.02
2023-02-23T01:36:42.652Z,7.02
2023-02-23T01:39:14.876Z,7.02
2023-02-23T01:41:42.394Z,7.02
2023-02-23T01:44:31.632Z,7.00
2023-02-23T01:46:58.351Z,7.03
2023-02-23T01:49:28.300Z,7.02
2023-02-23T01:52:11.586Z,7.03
2023-02-23T01:54:41.689Z,7.02
2023-02-23T01:57:13.801Z,7.05
2023-02-23T01:59:44.274Z,7.06
2023-02-23T02:02:13.365Z,7.08
2023-02-23T02:04:45.128Z,7.10
2023-02-23T02:07:26.922Z,7.09
2023-02-23T02:10:11.330Z,7.11
2023-02-23T02:12:46.347Z,7.10
2023-02-23T02:15:17.519Z,7.12
2023-02-23T02:18:03.276Z,7.11
2023-02-23T02:20:57.194Z,7.10
2023-02-23T02:24:08.256Z,7.09
2023-02-23T02:26:49.814Z,7.09
2023-02-23T02:29:34.589Z,7.09
2023-02-23T02:32:18.979Z,7.09
2023-02-23T02:34:48.385Z,7.08
2023-02-23T02:37:17.638Z,7.09
2023-02-23T02:39:53.559Z,7.08
2023-02-23T02:42:33.025Z,7.09
2023-02-23T02:45:17.984Z,7.08
2023-02-23T02:48:10.745Z,7.07
2023-02-23T02:50:58.425Z,7.08
2023-02-23T02:53:45.003Z,7.05
2023-02-23T02:56:16.512Z,7.05
2023-02-23T02:58:43.476Z,7.03
2023-02-23T03:01:33.178Z,6.99
2023-02-23T03:04:23.551Z,6.99
2023-02-23T03:07:22.974Z,6.99
2023-02-23T03:10:27.010Z,6.99
2023-02-23T03:13:34.999Z,6.97
2023-02-23T03:16:41.781Z,6.96
2023-02-23T03:19:47.810Z,6.95
2023-02-23T03:22:57.565Z,6.95
2023-02-23T03:26:13.662Z,6.95
2023-02-23T03:29:26.640Z,6.95
2023-02-23T03:32:27.156Z,6.95
2023-02-23T03:35:24.077Z,6.93
2023-02-23T03:38:19.034Z,6.93
2023-02-23T03:41:07.838Z,6.95
2023-02-23T03:44:02.226Z,6.92
2023-02-23T03:46:49.004Z,6.92
2023-02-23T03:49:37.304Z,6.93
2023-02-23T03:52:29.287Z,6.90
2023-02-23T03:55:21.267Z,6.88
2023-02-23T03:58:11.590Z,6.88
2023-02-23T04:01:04.244Z,6.91
2023-02-23T04:03:52.793Z,6.90
2023-02-23T04:06:42.688Z,6.89
2023-02-23T04:09:27.524Z,6.87
2023-02-23T04:12:21.932Z,6.87
2023-02-23T04:15:08.453Z,6.88
2023-02-23T04:17:35.221Z,6.87
2023-02-23T04:20:02.019Z,6.85
2023-02-23T04:22:28.425Z,6.85
2023-02-23T04:24:54.794Z,6.86
2023-02-23T04:27:21.169Z,6.85
2023-02-23T04:29:47.550Z,6.85
2023-02-23T04:32:17.659Z,6.84
2023-02-23T04:34:45.083Z,6.84
2023-02-23T04:37:12.617Z,6.84
2023-02-23T04:39:39.286Z,6.83
2023-02-23T04:42:05.725Z,6.83
2023-02-23T04:44:32.094Z,6.83
2023-02-23T04:46:58.517Z,6.84
2023-02-23T04:49:24.969Z,6.85
2023-02-23T04:51:51.304Z,6.81
2023-02-23T04:54:18.188Z,6.79
2023-02-23T04:56:44.574Z,6.78
2023-02-23T04:59:11.021Z,6.75
2023-02-23T05:01:37.471Z,6.74
2023-02-23T05:04:04.017Z,6.73
2023-02-23T05:06:30.928Z,6.73
2023-02-23T05:08:57.443Z,6.74
2023-02-23T05:11:24.919Z,6.74
2023-02-23T05:13:52.047Z,6.71
2023-02-23T05:16:18.463Z,6.71
2023-02-23T05:18:44.911Z,6.72
2023-02-23T05:21:11.435Z,6.74
2023-02-23T05:23:38.446Z,6.74
2023-02-23T05:26:11.920Z,6.71
2023-02-23T05:28:40.863Z,6.69
2023-02-23T05:31:07.801Z,6.71
2023-02-23T05:33:35.595Z,6.73
2023-02-23T05:36:05.458Z,6.71
2023-02-23T05:38:31.856Z,6.73
2023-02-23T05:40:58.190Z,6.72
2023-02-23T05:43:24.573Z,6.71
2023-02-23T05:45:50.971Z,6.70
2023-02-23T05:48:17.302Z,6.71
2023-02-23T05:50:43.661Z,6.72
2023-02-23T05:53:10.364Z,6.71
2023-02-23T05:55:37.530Z,6.72
2023-02-23T05:58:03.895Z,6.71
2023-02-23T06:00:30.342Z,6.71
2023-02-23T06:02:56.877Z,6.72
2023-02-23T06:05:23.358Z,6.72
2023-02-23T06:07:49.762Z,6.72
2023-02-23T06:10:16.502Z,6.72
2023-02-23T06:12:42.890Z,6.74
2023-02-23T06:15:09.687Z,6.74
2023-02-23T06:17:36.386Z,6.73
2023-02-23T06:20:04.821Z,6.72
2023-02-23T06:22:31.193Z,6.72
2023-02-23T06:24:57.547Z,6.74
2023-02-23T06:27:23.992Z,6.76
2023-02-23T06:29:50.406Z,6.73
2023-02-23T06:32:16.878Z,6.74
2023-02-23T06:34:44.801Z,6.75
2023-02-23T06:37:12.012Z,6.75
2023-02-23T06:39:38.498Z,6.73
2023-02-23T06:42:04.944Z,6.75
2023-02-23T06:44:31.372Z,6.76
2023-02-23T06:46:57.734Z,6.77
2023-02-23T06:49:24.309Z,6.77
2023-02-23T06:51:50.691Z,6.77
2023-02-23T06:54:17.579Z,6.77
2023-02-23T06:56:44.050Z,6.80
2023-02-23T06:59:10.516Z,6.82
2023-02-23T07:01:36.950Z,6.80
2023-02-23T07:04:03.503Z,6.79
2023-02-23T07:06:29.865Z,6.81
2023-02-23T07:08:58.183Z,6.80
2023-02-23T07:11:24.584Z,6.83
2023-02-23T07:13:50.971Z,6.84
2023-02-23T07:16:17.370Z,6.85
2023-02-23T07:18:43.757Z,6.85
2023-02-23T07:21:10.171Z,6.83
2023-02-23T07:23:36.658Z,6.82
2023-02-23T07:26:03.056Z,6.82
2023-02-23T07:28:29.386Z,6.82
2023-02-23T07:30:57.309Z,6.82
2023-02-23T07:33:24.630Z,6.82
2023-02-23T07:35:51.644Z,6.82
2023-02-23T07:38:18.910Z,6.82
2023-02-23T07:40:45.330Z,6.84
2023-02-23T07:43:11.736Z,6.85
2023-02-23T07:45:38.349Z,6.88
2023-02-23T07:48:04.930Z,6.88
2023-02-23T07:50:31.326Z,6.90
2023-02-23T07:52:58.483Z,6.92
2023-02-23T07:55:24.847Z,6.94
2023-02-23T07:57:51.362Z,6.95
2023-02-23T08:00:18.149Z,6.98
2023-02-23T08:02:44.726Z,7.02
2023-02-23T08:05:11.525Z,7.04
2023-02-23T08:07:37.942Z,7.05
2023-02-23T08:10:04.683Z,7.09
2023-02-23T08:12:34.045Z,7.12
2023-02-23T08:15:00.471Z,7.16
2023-02-23T08:17:27.386Z,7.19
2023-02-23T08:19:53.779Z,7.19
2023-02-23T08:22:21.272Z,7.24
2023-02-23T08:24:47.731Z,7.28
2023-02-23T08:27:14.102Z,7.31
2023-02-23T08:29:40.450Z,7.34
2023-02-23T08:32:06.892Z,7.38
2023-02-23T08:34:38.297Z,7.43
2023-02-23T08:37:04.729Z,7.45
2023-02-23T08:39:31.221Z,7.49
2023-02-23T08:41:57.554Z,7.51
2023-02-23T08:44:24.060Z,7.52
2023-02-23T08:46:50.522Z,7.53
2023-02-23T08:49:17.007Z,7.52
2023-02-23T08:51:43.375Z,7.52
2023-02-23T08:54:14.308Z,7.47
2023-02-23T08:56:42.162Z,7.46
2023-02-23T08:59:09.497Z,7.45
2023-02-23T09:01:37.028Z,7.49
2023-02-23T09:04:04.931Z,7.54
2023-02-23T09:06:32.224Z,7.57
2023-02-23T09:08:58.673Z,7.64
2023-02-23T09:11:25.244Z,7.68
2023-02-23T09:13:51.590Z,7.73
2023-02-23T09:16:18.514Z,7.75
2023-02-23T09:18:45.362Z,7.76
2023-02-23T09:21:25.020Z,7.74
2023-02-23T09:23:54.469Z,7.75
2023-02-23T09:26:21.504Z,7.79
2023-02-23T09:28:49.378Z,7.82
2023-02-23T09:31:19.409Z,7.85
2023-02-23T09:33:46.679Z,7.83
2023-02-23T09:36:18.855Z,7.82
2023-02-23T09:38:48.390Z,7.75
2023-02-23T09:41:50.458Z,7.72
2023-02-23T09:44:19.559Z,7.78
2023-02-23T09:47:05.381Z,7.78
2023-02-23T09:49:35.989Z,7.81
2023-02-23T09:52:03.941Z,7.82
2023-02-23T09:54:34.389Z,7.87
2023-02-23T09:57:04.734Z,7.91
2023-02-23T09:59:31.249Z,7.96
2023-02-23T10:02:13.735Z,8.04
2023-02-23T10:04:50.361Z,8.09
2023-02-23T10:07:26.253Z,8.10
2023-02-23T10:10:23.576Z,8.10
2023-02-23T10:12:58.843Z,8.10
2023-02-23T10:15:52.164Z,8.13
2023-02-23T10:18:47.297Z,8.11
2023-02-23T10:21:32.625Z,8.09
2023-02-23T10:24:10.072Z,8.08
2023-02-23T10:26:51.030Z,8.09
2023-02-23T10:29:32.515Z,8.11
2023-02-23T10:32:43.861Z,8.13
2023-02-23T10:35:20.349Z,8.16
2023-02-23T10:37:47.842Z,8.17
2023-02-23T10:40:17.479Z,8.15
2023-02-23T10:42:43.992Z,8.13
2023-02-23T10:45:24.809Z,8.12
2023-02-23T10:48:01.774Z,8.09
2023-02-23T10:50:30.364Z,8.10
2023-02-23T10:53:11.858Z,8.12
2023-02-23T10:55:38.314Z,8.09
2023-02-23T10:58:17.746Z,8.11
2023-02-23T11:00:53.242Z,8.09
2023-02-23T11:03:28.652Z,8.18
2023-02-23T11:05:55.511Z,8.23
2023-02-23T11:08:29.277Z,8.27
2023-02-23T11:11:04.920Z,8.37
2023-02-23T11:13:40.510Z,8.40
2023-02-23T11:16:10.254Z,8.47
2023-02-23T11:18:39.142Z,8.54
2023-02-23T11:21:13.102Z,8.56
2023-02-23T11:23:41.274Z,8.59
2023-02-23T11:26:42.120Z,8.63
2023-02-23T11:29:36.558Z,8.53
2023-02-23T11:32:10.176Z,8.45
2023-02-23T11:34:40.979Z,8.40
2023-02-23T11:37:24.064Z,8.39
2023-02-23T11:39:57.254Z,8.37
2023-02-23T11:42:28.362Z,8.31
2023-02-23T11:45:20.533Z,8.22
2023-02-23T11:47:49.883Z,8.17
2023-02-23T11:50:27.623Z,8.15
2023-02-23T11:53:12.377Z,8.17
2023-02-23T11:55:38.980Z,8.11
2023-02-23T11:58:31.679Z,8.08
2023-02-23T12:01:11.111Z,8.05
2023-02-23T12:03:43.930Z,8.04
2023-02-23T12:06:10.873Z,8.04
2023-02-23T12:08:49.087Z,8.02
2023-02-23T12:11:22.479Z,8.01
2023-02-23T12:14:00.800Z,7.93
2023-02-23T12:16:33.617Z,7.92
2023-02-23T12:19:08.776Z,7.94
2023-02-23T12:21:42.029Z,8.03
2023-02-23T12:24:08.311Z,8.09
2023-02-23T12:26:50.229Z,8.17
2023-02-23T12:29:23.065Z,8.17
2023-02-23T12:31:58.162Z,8.17
2023-02-23T12:34:37.043Z,8.21
2023-02-23T12:37:18.123Z,8.29
2023-02-23T12:39:51.555Z,8.38
2023-02-23T12:42:24.101Z,8.47
2023-02-23T12:44:54.237Z,8.49
2023-02-23T12:47:34.978Z,8.51
2023-02-23T12:50:13.301Z,8.51
2023-02-23T12:52:53.650Z,8.46
2023-02-23T12:55:41.874Z,8.40
2023-02-23T12:58:29.290Z,8.38
2023-02-23T13:00:58.742Z,8.46
2023-02-23T13:03:38.854Z,8.51
2023-02-23T13:06:15.009Z,8.51
2023-02-23T13:08:53.491Z,8.55
2023-02-23T13:11:58.354Z,8.56
2023-02-23T13:14:53.985Z,8.55
2023-02-23T13:17:47.910Z,8.54
2023-02-23T13:20:30.991Z,8.51
2023-02-23T13:23:11.010Z,8.55
2023-02-23T13:26:18.470Z,8.73
2023-02-23T13:28:50.552Z,8.81
2023-02-23T13:31:42.000Z,8.84
2023-02-23T13:34:20.809Z,8.87
2023-02-23T13:36:50.463Z,8.96
2023-02-23T13:39:29.137Z,9.04
2023-02-23T13:41:55.450Z,9.06
2023-02-23T13:44:49.145Z,9.04
2023-02-23T13:47:31.118Z,8.97
2023-02-23T13:50:25.283Z,8.93
2023-02-23T13:52:58.369Z,8.96
2023-02-23T13:55:32.614Z,8.97
2023-02-23T13:58:15.296Z,8.92
2023-02-23T14:00:42.876Z,8.84
2023-02-23T14:03:24.533Z,8.83
2023-02-23T14:05:57.386Z,8.83
2023-02-23T14:08:34.813Z,8.80
2023-02-23T14:11:01.866Z,8.78
2023-02-23T14:13:32.367Z,8.73
2023-02-23T14:16:14.546Z,8.72
2023-02-23T14:19:08.865Z,8.77
2023-02-23T14:21:58.280Z,8.79
2023-02-23T14:24:26.754Z,8.84
2023-02-23T14:27:09.339Z,8.85
2023-02-23T14:29:45.361Z,8.84
2023-02-23T14:32:14.775Z,8.79
2023-02-23T14:34:57.063Z,8.77
2023-02-23T14:37:26.421Z,8.79
2023-02-23T14:40:01.337Z,8.74
2023-02-23T14:42:29.879Z,8.71
2023-02-23T14:45:02.554Z,8.69
2023-02-23T14:47:29.024Z,8.66
2023-02-23T14:49:59.318Z,8.59
2023-02-23T14:52:46.424Z,8.61
2023-02-23T14:55:12.708Z,8.63
2023-02-23T14:57:41.433Z,8.67
2023-02-23T15:00:12.657Z,8.66
2023-02-23T15:02:53.634Z,8.66
2023-02-23T15:05:24.251Z,8.61
2023-02-23T15:07:51.949Z,8.56
2023-02-23T15:10:26.062Z,8.53
2023-02-23T15:12:53.480Z,8.46
2023-02-23T15:15:23.595Z,8.36
2023-02-23T15:17:53.077Z,8.32
2023-02-23T15:20:28.676Z,8.28
2023-02-23T15:22:59.221Z,8.23
2023-02-23T15:25:34.655Z,8.13
2023-02-23T15:28:11.442Z,8.03
2023-02-23T15:30:46.789Z,8.00
2023-02-23T15:33:15.480Z,7.93
2023-02-23T15:35:56.045Z,7.92
2023-02-23T15:38:43.923Z,7.89
2023-02-23T15:41:25.062Z,7.83
2023-02-23T15:43:51.773Z,7.77
2023-02-23T15:46:24.970Z,7.73
2023-02-23T15:48:54.033Z,7.70
2023-02-23T15:51:28.889Z,7.59
2023-02-23T15:53:55.531Z,7.47
2023-02-23T15:56:30.578Z,7.41
2023-02-23T15:59:03.082Z,7.38
2023-02-23T16:01:31.747Z,7.31
2023-02-23T16:04:02.536Z,7.22
2023-02-23T16:06:34.931Z,7.16
2023-02-23T16:09:21.188Z,7.13
2023-02-23T16:11:54.124Z,7.09
2023-02-23T16:14:23.156Z,6.98
2023-02-23T16:17:08.319Z,6.93
2023-02-23T16:19:40.605Z,6.95
2023-02-23T16:22:14.438Z,6.92
2023-02-23T16:24:40.854Z,6.88
2023-02-23T16:27:07.410Z,6.88
2023-02-23T16:29:43.207Z,6.86
2023-02-23T16:32:20.634Z,6.86
2023-02-23T16:34:50.795Z,6.88
2023-02-23T16:37:23.485Z,6.88
2023-02-23T16:39:49.843Z,6.86
2023-02-23T16:42:32.225Z,6.88
2023-02-23T16:44:59.686Z,6.86
2023-02-23T16:47:36.277Z,6.82
2023-02-23T16:50:30.508Z,6.84
2023-02-23T16:52:56.823Z,6.80
2023-02-23T16:55:25.665Z,6.79
2023-02-23T16:57:55.573Z,6.78
2023-02-23T17:00:25.298Z,6.77
2023-02-23T17:02:51.993Z,6.77
2023-02-23T17:05:22.627Z,6.72
2023-02-23T17:07:50.153Z,6.71
2023-02-23T17:10:25.952Z,6.67
2023-02-23T17:13:20.465Z,6.62
2023-02-23T17:15:51.812Z,6.61
2023-02-23T17:18:20.493Z,6.56
2023-02-23T17:20:46.898Z,6.51
2023-02-23T17:23:13.285Z,6.50
2023-02-23T17:25:39.750Z,6.49
2023-02-23T17:28:06.199Z,6.48
2023-02-23T17:30:34.446Z,6.41
2023-02-23T17:33:01.459Z,6.42
2023-02-23T17:35:28.168Z,6.34
2023-02-23T17:37:54.846Z,6.33
2023-02-23T17:40:31.124Z,6.23
2023-02-23T17:43:00.702Z,6.16
2023-02-23T17:45:28.550Z,6.15
2023-02-23T17:47:55.413Z,6.11
2023-02-23T17:50:22.402Z,6.09
2023-02-23T17:52:50.615Z,6.10
2023-02-23T17:55:18.744Z,6.04
2023-02-23T17:57:45.165Z,6.04
2023-02-23T18:00:13.656Z,6.00
2023-02-23T18:02:41.048Z,5.99
2023-02-23T18:05:09.232Z,5.93
2023-02-23T18:07:36.386Z,5.92
2023-02-23T18:10:03.921Z,5.91
2023-02-23T18:12:30.317Z,5.90
2023-02-23T18:14:58.031Z,5.91
2023-02-23T18:17:24.605Z,5.90
2023-02-23T18:19:51.231Z,5.86
2023-02-23T18:22:18.473Z,5.86
2023-02-23T18:24:44.921Z,5.86
2023-02-23T18:27:12.652Z,5.87
2023-02-23T18:29:39.451Z,5.85
2023-02-23T18:32:08.278Z,5.82
2023-02-23T18:34:35.186Z,5.83
2023-02-23T18:37:03.409Z,5.80
2023-02-23T18:39:31.449Z,5.80
2023-02-23T18:41:59.422Z,5.77
2023-02-23T18:44:26.894Z,5.73
2023-02-23T18:46:54.789Z,5.71
2023-02-23T18:49:23.839Z,5.70
2023-02-23T18:51:50.273Z,5.65
2023-02-23T18:54:16.868Z,5.63
2023-02-23T18:56:44.961Z,5.62
2023-02-23T18:59:11.698Z,5.58
2023-02-23T19:01:38.438Z,5.54
2023-02-23T19:04:07.642Z,5.51
2023-02-23T19:06:37.416Z,5.46
2023-02-23T19:09:07.716Z,5.45
2023-02-23T19:11:34.554Z,5.43
2023-02-23T19:14:03.745Z,5.41
2023-02-23T19:16:32.261Z,5.31
2023-02-23T19:19:00.092Z,5.27
2023-02-23T19:21:26.617Z,5.20
2023-02-23T19:23:56.272Z,5.14
2023-02-23T19:26:22.760Z,5.09
2023-02-23T19:28:49.107Z,5.03
2023-02-23T19:31:20.590Z,4.97
2023-02-23T19:33:50.507Z,4.90
2023-02-23T19:36:19.693Z,4.86
2023-02-23T19:38:46.262Z,4.83
2023-02-23T19:41:16.114Z,4.76
2023-02-23T19:43:42.628Z,4.69
2023-02-23T19:46:12.222Z,4.60
2023-02-23T19:48:39.035Z,4.56
2023-02-23T19:51:10.002Z,4.50
2023-02-23T19:53:37.287Z,4.45
2023-02-23T19:56:15.142Z,4.41
2023-02-23T19:58:46.456Z,4.34
2023-02-23T20:01:16.669Z,4.28
2023-02-23T20:03:47.313Z,4.23
2023-02-23T20:06:15.913Z,4.17
2023-02-23T20:08:44.551Z,4.11
2023-02-23T20:11:11.996Z,4.05
2023-02-23T20:13:41.285Z,4.03
2023-02-23T20:16:13.009Z,3.98
2023-02-23T20:18:40.762Z,3.92
2023-02-23T20:21:12.650Z,3.88
2023-02-23T20:23:40.303Z,3.88
2023-02-23T20:26:08.247Z,3.86
2023-02-23T20:28:35.054Z,3.81
2023-02-23T20:31:02.463Z,3.74
2023-02-23T20:33:30.618Z,3.69
2023-02-23T20:35:57.701Z,3.67
2023-02-23T20:38:24.066Z,3.63
2023-02-23T20:40:51.316Z,3.61
2023-02-23T20:43:17.663Z,3.58
2023-02-23T20:45:44.204Z,3.56
2023-02-23T20:48:10.691Z,3.50
2023-02-23T20:50:37.499Z,3.46
2023-02-23T20:53:05.240Z,3.37
2023-02-23T20:55:32.324Z,3.31
2023-02-23T20:57:58.898Z,3.27
2023-02-23T21:00:31.809Z,3.22
2023-02-23T21:03:03.042Z,3.17
2023-02-23T21:05:33.514Z,3.14
2023-02-23T21:08:05.649Z,3.08
2023-02-23T21:10:35.228Z,3.02
2023-02-23T21:13:01.975Z,2.96
2023-02-23T21:15:29.348Z,2.89
2023-02-23T21:17:57.334Z,2.81
2023-02-23T21:20:25.478Z,2.74
2023-02-23T21:22:51.828Z,2.69
2023-02-23T21:25:20.096Z,2.63
2023-02-23T21:27:47.841Z,2.59
2023-02-23T21:30:16.338Z,2.55
2023-02-23T21:32:43.601Z,2.52
2023-02-23T21:35:10.835Z,2.51
2023-02-23T21:37:39.029Z,2.51
2023-02-23T21:40:10.356Z,2.48
2023-02-23T21:42:38.603Z,2.45
2023-02-23T21:45:05.569Z,2.43
2023-02-23T21:47:35.255Z,2.41
2023-02-23T21:50:02.575Z,2.37
2023-02-23T21:52:31.292Z,2.37
2023-02-23T21:54:59.259Z,2.34
2023-02-23T21:57:28.084Z,2.30
2023-02-23T21:59:54.598Z,2.25
2023-02-23T22:02:21.057Z,2.21
2023-02-23T22:04:49.253Z,2.15
2023-02-23T22:07:16.886Z,2.10
2023-02-23T22:09:44.328Z,2.03
2023-02-23T22:12:10.756Z,1.97
2023-02-23T22:14:37.288Z,1.94
2023-02-23T22:17:06.348Z,1.89
2023-02-23T22:19:33.175Z,1.84
2023-02-23T22:21:59.627Z,1.80
2023-02-23T22:24:26.116Z,1.76
2023-02-23T22:26:55.419Z,1.71
2023-02-23T22:29:24.797Z,1.64
2023-02-23T22:31:51.802Z,1.66
2023-02-23T22:34:18.775Z,1.65
2023-02-23T22:36:45.494Z,1.65
2023-02-23T22:39:14.033Z,1.58
2023-02-23T22:41:43.401Z,1.52
2023-02-23T22:44:18.957Z,1.49
2023-02-23T22:46:48.219Z,1.43
2023-02-23T22:49:15.899Z,1.41
2023-02-23T22:51:43.765Z,1.39
2023-02-23T22:54:11.633Z,1.36
2023-02-23T22:56:38.313Z,1.33
2023-02-23T22:59:06.262Z,1.31
2023-02-23T23:01:33.411Z,1.30
2023-02-23T23:03:59.970Z,1.27
2023-02-23T23:06:26.883Z,1.25
2023-02-23T23:08:56.241Z,1.24
2023-02-23T23:11:26.731Z,1.24
2023-02-23T23:14:01.203Z,1.24
2023-02-23T23:16:33.451Z,1.18
2023-02-23T23:19:03.543Z,1.14
2023-02-23T23:21:32.753Z,1.11
2023-02-23T23:24:01.627Z,1.07
2023-02-23T23:26:29.413Z,1.02
2023-02-23T23:28:58.418Z,0.99
2023-02-23T23:31:29.271Z,0.98
2023-02-23T23:34:00.034Z,0.94
2023-02-23T23:36:30.043Z,0.89
2023-02-23T23:38:56.555Z,0.88
2023-02-23T23:41:25.487Z,0.84
2023-02-23T23:43:54.706Z,0.82
2023-02-23T23:46:24.876Z,0.82
2023-02-23T23:48:55.584Z,0.83
2023-02-23T23:51:24.330Z,0.88
2023-02-23T23:53:59.609Z,0.88
2023-02-23T23:56:26.535Z,0.89
2023-02-23T23:58:54.062Z,0.93
